createdAt,value
2023-04-15T00:02:15.312Z,90.85
2023-04-15T00:04:44.500Z,91.04
2023-04-15T00:07:15.173Z,91.23
2023-04-15T00:09:46.178Z,91.00
2023-04-15T00:12:15.507Z,91.35
2023-04-15T00:14:43.644Z,91.38
2023-04-15T00:17:13.403Z,91.46
2023-04-15T00:19:42.020Z,91.72
2023-04-15T00:22:10.269Z,91.92
2023-04-15T00:24:39.769Z,92.12
2023-04-15T00:27:08.936Z,92.23
2023-04-15T00:29:37.360Z,92.30
2023-04-15T00:32:05.458Z,92.33
2023-04-15T00:34:36.906Z,92.42
2023-04-15T00:37:05.132Z,92.50
2023-04-15T00:39:35.269Z,92.55
2023-04-15T00:42:04.036Z,92.58
2023-04-15T00:44:33.482Z,92.63
2023-04-15T00:47:02.056Z,92.58
2023-04-15T00:49:30.871Z,92.21
2023-04-15T00:52:00.438Z,92.34
2023-04-15T00:54:28.608Z,92.31
2023-04-15T00:56:56.753Z,92.35
2023-04-15T00:59:30.101Z,92.19
2023-04-15T01:02:02.565Z,92.08
2023-04-15T01:04:32.100Z,92.05
2023-04-15T01:07:02.915Z,92.07
2023-04-15T01:09:32.082Z,92.07
2023-04-15T01:12:28.181Z,91.99
2023-04-15T01:14:56.923Z,91.89
2023-04-15T01:17:26.448Z,92.09
2023-04-15T01:19:57.295Z,92.24
2023-04-15T01:22:34.561Z,92.16
2023-04-15T01:25:10.603Z,91.84
2023-04-15T01:27:41.403Z,91.75
2023-04-15T01:30:11.758Z,91.81
2023-04-15T01:32:39.923Z,91.60
2023-04-15T01:35:08.945Z,91.28
2023-04-15T01:37:39.403Z,91.18
2023-04-15T01:40:09.159Z,90.48
2023-04-15T01:42:37.736Z,90.09
2023-04-15T01:45:08.906Z,90.09
2023-04-15T01:47:39.443Z,89.84
2023-04-15T01:50:08.679Z,90.03
2023-04-15T01:52:41.915Z,90.01
2023-04-15T01:55:11.514Z,89.90
2023-04-15T01:57:42.361Z,90.08
2023-04-15T02:00:37.089Z,90.43
2023-04-15T02:03:06.763Z,90.60
2023-04-15T02:05:35.011Z,90.59
2023-04-15T02:08:09.472Z,90.67
2023-04-15T02:10:39.656Z,91.22
2023-04-15T02:13:07.969Z,91.15
2023-04-15T02:15:37.638Z,91.17
2023-04-15T02:18:05.776Z,90.98
2023-04-15T02:20:34.480Z,91.10
2023-04-15T02:23:03.203Z,91.17
2023-04-15T02:25:32.443Z,91.16
2023-04-15T02:28:04.526Z,90.86
2023-04-15T02:30:32.811Z,90.63
2023-04-15T02:33:05.241Z,90.62
2023-04-15T02:35:34.601Z,90.64
2023-04-15T02:38:04.136Z,90.89
2023-04-15T02:40:57.779Z,90.95
2023-04-15T02:43:26.065Z,90.89
2023-04-15T02:45:54.462Z,90.97
2023-04-15T02:48:26.222Z,91.20
2023-04-15T02:51:12.715Z,91.43
2023-04-15T02:53:42.450Z,91.44
2023-04-15T02:56:11.766Z,91.55
2023-04-15T02:58:42.306Z,91.78
2023-04-15T03:01:10.585Z,91.87
2023-04-15T03:03:40.610Z,91.84
2023-04-15T03:06:09.160Z,91.57
2023-04-15T03:08:41.087Z,91.54
2023-04-15T03:11:09.940Z,91.52
2023-04-15T03:13:39.660Z,91.36
2023-04-15T03:16:14.455Z,91.24
2023-04-15T03:18:45.951Z,91.09
2023-04-15T03:21:14.638Z,91.06
2023-04-15T03:23:42.769Z,91.13
2023-04-15T03:26:11.949Z,91.10
2023-04-15T03:28:42.134Z,91.02
2023-04-15T03:31:12.420Z,91.02
2023-04-15T03:33:40.637Z,91.11
2023-04-15T03:36:19.556Z,91.16
2023-04-15T03:38:47.717Z,91.18
2023-04-15T03:41:16.177Z,91.19
2023-04-15T03:43:44.374Z,91.25
2023-04-15T03:46:12.501Z,91.28
2023-04-15T03:48:41.621Z,91.16
2023-04-15T03:51:09.700Z,91.27
2023-04-15T03:53:39.180Z,91.25
2023-04-15T03:56:07.483Z,91.25
2023-04-15T03:58:36.712Z,91.20
2023-04-15T04:01:04.929Z,91.29
2023-04-15T04:03:33.724Z,91.48
2023-04-15T04:06:02.032Z,91.62
2023-04-15T04:08:31.260Z,91.61
2023-04-15T04:11:01.021Z,91.63
2023-04-15T04:13:29.113Z,91.53
2023-04-15T04:15:57.414Z,91.23
2023-04-15T04:18:27.499Z,90.84
2023-04-15T04:21:00.668Z,90.75
2023-04-15T04:23:32.135Z,91.04
2023-04-15T04:26:02.865Z,91.01
2023-04-15T04:28:35.349Z,91.23
2023-04-15T04:31:11.617Z,91.35
2023-04-15T04:33:39.919Z,91.44
2023-04-15T04:36:09.366Z,91.38
2023-04-15T04:38:37.601Z,91.40
2023-04-15T04:41:10.444Z,91.56
2023-04-15T04:43:38.623Z,91.76
2023-04-15T04:46:06.926Z,91.75
2023-04-15T04:48:35.213Z,91.79
2023-04-15T04:51:03.487Z,91.85
2023-04-15T04:53:33.697Z,91.85
2023-04-15T04:56:01.790Z,91.94
2023-04-15T04:58:31.287Z,91.86
2023-04-15T05:00:59.626Z,91.99
2023-04-15T05:03:28.172Z,92.10
2023-04-15T05:05:59.655Z,92.21
2023-04-15T05:08:31.314Z,92.10
2023-04-15T05:10:59.472Z,92.21
2023-04-15T05:13:27.692Z,92.12
2023-04-15T05:15:57.463Z,92.20
2023-04-15T05:18:25.640Z,92.06
2023-04-15T05:20:54.069Z,92.42
2023-04-15T05:23:23.318Z,92.53
2023-04-15T05:25:51.518Z,92.60
2023-04-15T05:28:23.781Z,92.75
2023-04-15T05:30:53.063Z,92.76
2023-04-15T05:33:23.179Z,92.87
2023-04-15T05:35:51.347Z,92.79
2023-04-15T05:38:19.524Z,92.37
2023-04-15T05:40:47.649Z,92.69
2023-04-15T05:43:15.780Z,92.21
2023-04-15T05:45:43.896Z,92.11
2023-04-15T05:48:13.066Z,91.46
2023-04-15T05:50:44.009Z,91.28
2023-04-15T05:53:13.187Z,92.28
2023-04-15T05:55:43.378Z,92.10
2023-04-15T05:58:11.553Z,91.60
2023-04-15T06:00:39.827Z,90.62
2023-04-15T06:03:10.196Z,90.38
2023-04-15T06:05:38.723Z,90.60
2023-04-15T06:08:08.531Z,91.42
2023-04-15T06:10:38.919Z,91.12
2023-04-15T06:13:07.263Z,90.01
2023-04-15T06:15:35.666Z,90.26
2023-04-15T06:18:11.831Z,89.32
2023-04-15T06:21:31.383Z,89.37
2023-04-15T06:24:02.845Z,89.93
2023-04-15T06:26:36.197Z,89.66
2023-04-15T06:29:04.469Z,90.17
2023-04-15T06:31:32.612Z,90.13
2023-04-15T06:34:00.848Z,89.28
2023-04-15T06:36:29.126Z,88.85
2023-04-15T06:38:58.211Z,88.78
2023-04-15T06:41:28.803Z,87.72
2023-04-15T06:43:57.062Z,87.29
2023-04-15T06:46:25.317Z,87.26
2023-04-15T06:48:54.601Z,88.24
2023-04-15T06:51:26.108Z,87.88
2023-04-15T06:53:57.045Z,88.70
2023-04-15T06:56:25.318Z,88.42
2023-04-15T06:58:55.110Z,87.84
2023-04-15T07:01:25.431Z,87.35
2023-04-15T07:03:53.751Z,87.53
2023-04-15T07:06:23.200Z,86.40
2023-04-15T07:08:51.425Z,85.97
2023-04-15T07:11:22.286Z,86.22
2023-04-15T07:13:50.501Z,84.35
2023-04-15T07:16:20.198Z,85.55
2023-04-15T07:18:48.427Z,84.18
2023-04-15T07:21:16.590Z,83.73
2023-04-15T07:23:47.059Z,82.51
2023-04-15T07:26:15.289Z,82.42
2023-04-15T07:28:43.665Z,83.80
2023-04-15T07:31:12.266Z,82.91
2023-04-15T07:33:41.924Z,81.88
2023-04-15T07:36:11.430Z,82.41
2023-04-15T07:38:39.596Z,82.18
2023-04-15T07:41:07.904Z,81.52
2023-04-15T07:43:36.086Z,80.23
2023-04-15T07:46:04.329Z,81.94
2023-04-15T07:48:32.514Z,82.66
2023-04-15T07:51:02.940Z,81.80
2023-04-15T07:53:33.791Z,81.06
2023-04-15T07:56:01.878Z,82.19
2023-04-15T07:58:30.082Z,82.68
2023-04-15T08:00:58.794Z,83.15
2023-04-15T08:03:27.823Z,82.68
2023-04-15T08:05:56.069Z,82.17
2023-04-15T08:08:25.869Z,82.11
2023-04-15T08:10:54.063Z,82.97
2023-04-15T08:13:22.526Z,82.11
2023-04-15T08:16:16.248Z,81.64
2023-04-15T08:18:44.629Z,81.90
2023-04-15T08:21:13.413Z,82.73
2023-04-15T08:23:43.252Z,81.64
2023-04-15T08:26:30.572Z,82.24
2023-04-15T08:29:01.076Z,83.06
2023-04-15T08:31:31.326Z,82.25
2023-04-15T08:33:59.680Z,81.62
2023-04-15T08:36:29.892Z,82.47
2023-04-15T08:39:01.621Z,81.24
2023-04-15T08:42:20.985Z,81.51
2023-04-15T08:44:49.536Z,78.72
2023-04-15T08:47:21.793Z,78.77
2023-04-15T08:49:53.980Z,77.97
2023-04-15T08:52:22.799Z,77.21
2023-04-15T08:54:54.226Z,77.89
2023-04-15T08:57:22.703Z,75.95
2023-04-15T08:59:51.102Z,76.30
2023-04-15T09:02:19.655Z,76.83
2023-04-15T09:04:47.884Z,77.81
2023-04-15T09:07:16.998Z,78.42
2023-04-15T09:09:45.247Z,78.40
2023-04-15T09:12:15.035Z,79.09
2023-04-15T09:14:43.645Z,78.79
2023-04-15T09:17:14.135Z,79.70
2023-04-15T09:19:43.323Z,79.11
2023-04-15T09:22:33.569Z,80.86
2023-04-15T09:25:01.882Z,80.60
2023-04-15T09:27:31.974Z,76.87
2023-04-15T09:30:00.160Z,76.56
2023-04-15T09:32:28.432Z,75.59
2023-04-15T09:35:11.913Z,75.93
2023-04-15T09:37:41.283Z,77.34
2023-04-15T09:40:10.623Z,78.85
2023-04-15T09:42:56.205Z,79.60
2023-04-15T09:45:29.402Z,80.24
2023-04-15T09:47:59.511Z,79.41
2023-04-15T09:50:30.777Z,79.67
2023-04-15T09:52:59.735Z,78.64
2023-04-15T09:55:27.952Z,75.73
2023-04-15T09:57:57.542Z,76.44
2023-04-15T10:00:33.114Z,76.63
2023-04-15T10:03:02.345Z,77.09
2023-04-15T10:05:31.839Z,76.72
2023-04-15T10:08:00.728Z,77.22
2023-04-15T10:10:37.060Z,78.58
2023-04-15T10:13:07.958Z,76.08
2023-04-15T10:15:36.960Z,77.30
2023-04-15T10:18:08.058Z,78.95
2023-04-15T10:20:38.222Z,78.43
2023-04-15T10:23:09.925Z,78.48
2023-04-15T10:25:40.012Z,79.82
2023-04-15T10:28:18.967Z,78.23
2023-04-15T10:30:51.885Z,78.06
2023-04-15T10:33:23.927Z,76.29
2023-04-15T10:36:01.337Z,76.22
2023-04-15T10:38:40.487Z,78.86
2023-04-15T10:41:21.629Z,79.33
2023-04-15T10:43:54.022Z,78.53
2023-04-15T10:46:26.766Z,76.78
2023-04-15T10:48:55.509Z,78.76
2023-04-15T10:51:32.235Z,79.18
2023-04-15T10:54:01.375Z,80.72
2023-04-15T10:56:32.619Z,80.97
2023-04-15T10:59:03.420Z,81.99
2023-04-15T11:01:55.099Z,81.42
2023-04-15T11:04:58.436Z,81.12
2023-04-15T11:07:49.847Z,80.42
2023-04-15T11:10:55.029Z,79.23
2023-04-15T11:13:31.550Z,80.09
2023-04-15T11:16:04.834Z,80.61
2023-04-15T11:18:35.390Z,80.36
2023-04-15T11:21:08.146Z,82.13
2023-04-15T11:23:41.437Z,79.46
2023-04-15T11:26:12.332Z,82.19
2023-04-15T11:28:42.588Z,80.56
2023-04-15T11:31:14.235Z,81.18
2023-04-15T11:33:55.276Z,79.38
2023-04-15T11:36:27.453Z,81.63
2023-04-15T11:38:56.310Z,82.67
2023-04-15T11:41:24.804Z,76.29
2023-04-15T11:43:53.795Z,77.76
2023-04-15T11:46:29.755Z,77.52
2023-04-15T11:48:58.020Z,77.38
2023-04-15T11:51:26.301Z,77.25
2023-04-15T11:53:54.945Z,78.80
2023-04-15T11:56:24.551Z,80.12
2023-04-15T11:58:54.429Z,78.32
2023-04-15T12:01:32.725Z,77.35
2023-04-15T12:04:01.888Z,77.98
2023-04-15T12:06:35.187Z,76.95
2023-04-15T12:09:10.674Z,76.93
2023-04-15T12:11:43.934Z,80.33
2023-04-15T12:14:14.476Z,78.29
2023-04-15T12:16:49.528Z,77.16
2023-04-15T12:19:23.524Z,80.30
2023-04-15T12:21:52.358Z,79.91
2023-04-15T12:24:23.760Z,80.34
2023-04-15T12:26:53.391Z,79.53
2023-04-15T12:29:26.310Z,80.11
2023-04-15T12:31:57.518Z,80.75
2023-04-15T12:34:30.286Z,80.47
2023-04-15T12:36:59.574Z,79.66
2023-04-15T12:39:30.895Z,82.36
2023-04-15T12:42:00.752Z,79.53
2023-04-15T12:44:29.507Z,77.60
2023-04-15T12:47:00.028Z,81.15
2023-04-15T12:49:29.144Z,82.29
2023-04-15T12:51:59.607Z,82.22
2023-04-15T12:54:28.160Z,81.64
2023-04-15T12:56:56.797Z,78.78
2023-04-15T12:59:26.511Z,80.29
2023-04-15T13:01:55.536Z,81.44
2023-04-15T13:04:25.756Z,82.20
2023-04-15T13:06:56.357Z,82.25
2023-04-15T13:09:24.566Z,84.17
2023-04-15T13:11:53.010Z,86.70
2023-04-15T13:14:22.400Z,83.17
2023-04-15T13:16:51.735Z,83.45
2023-04-15T13:19:20.374Z,83.12
2023-04-15T13:21:50.226Z,82.04
2023-04-15T13:24:18.705Z,82.00
2023-04-15T13:26:48.582Z,82.35
2023-04-15T13:29:18.493Z,83.39
2023-04-15T13:31:47.427Z,85.31
2023-04-15T13:34:15.964Z,84.25
2023-04-15T13:36:44.278Z,82.80
2023-04-15T13:39:14.120Z,82.60
2023-04-15T13:41:42.812Z,83.27
2023-04-15T13:44:14.432Z,81.70
2023-04-15T13:46:42.981Z,75.45
2023-04-15T13:49:11.300Z,77.45
2023-04-15T13:51:40.697Z,77.47
2023-04-15T13:54:09.148Z,77.45
2023-04-15T13:56:38.761Z,76.55
2023-04-15T13:59:09.297Z,76.61
2023-04-15T14:01:40.463Z,77.76
2023-04-15T14:04:09.289Z,76.24
2023-04-15T14:06:38.171Z,76.58
2023-04-15T14:09:06.949Z,78.16
2023-04-15T14:11:37.032Z,73.81
2023-04-15T14:14:07.048Z,75.83
2023-04-15T14:16:35.792Z,78.16
2023-04-15T14:19:04.728Z,78.85
2023-04-15T14:21:33.809Z,76.20
2023-04-15T14:24:02.506Z,78.08
2023-04-15T14:26:31.023Z,76.52
2023-04-15T14:29:01.317Z,77.52
2023-04-15T14:31:31.435Z,76.95
2023-04-15T14:34:00.174Z,76.82
2023-04-15T14:36:28.948Z,77.22
2023-04-15T14:38:57.195Z,77.08
2023-04-15T14:41:25.789Z,77.80
2023-04-15T14:43:54.234Z,80.66
2023-04-15T14:46:23.574Z,83.05
2023-04-15T14:48:53.290Z,84.50
2023-04-15T14:51:21.881Z,84.03
2023-04-15T14:53:50.400Z,84.11
2023-04-15T14:56:19.221Z,84.88
2023-04-15T14:58:47.909Z,85.38
2023-04-15T15:01:16.205Z,85.30
2023-04-15T15:03:45.416Z,85.73
2023-04-15T15:06:15.388Z,84.90
2023-04-15T15:08:44.777Z,85.20
2023-04-15T15:11:13.466Z,84.39
2023-04-15T15:13:42.535Z,84.51
2023-04-15T15:16:13.826Z,83.36
2023-04-15T15:18:42.746Z,82.12
2023-04-15T15:21:11.859Z,81.84
2023-04-15T15:23:42.029Z,81.75
2023-04-15T15:26:10.723Z,82.12
2023-04-15T15:28:39.166Z,81.28
2023-04-15T15:31:07.718Z,82.20
2023-04-15T15:33:35.993Z,83.19
2023-04-15T15:36:05.773Z,84.12
2023-04-15T15:38:34.206Z,84.29
2023-04-15T15:41:06.495Z,83.99
2023-04-15T15:43:35.270Z,83.59
2023-04-15T15:46:04.709Z,84.71
2023-04-15T15:48:32.900Z,84.83
2023-04-15T15:51:06.820Z,85.21
2023-04-15T15:53:35.561Z,84.33
2023-04-15T15:56:05.927Z,83.39
2023-04-15T15:58:35.311Z,84.98
2023-04-15T16:01:03.650Z,84.06
2023-04-15T16:03:32.081Z,84.15
2023-04-15T16:06:01.613Z,83.21
2023-04-15T16:08:29.994Z,82.59
2023-04-15T16:10:58.712Z,83.06
2023-04-15T16:13:28.920Z,83.99
2023-04-15T16:15:57.315Z,83.94
2023-04-15T16:18:25.582Z,83.85
2023-04-15T16:20:54.376Z,83.69
2023-04-15T16:23:23.962Z,84.30
2023-04-15T16:25:52.671Z,84.63
2023-04-15T16:28:26.862Z,84.97
2023-04-15T16:31:02.575Z,85.65
2023-04-15T16:33:31.155Z,85.50
2023-04-15T16:36:01.580Z,86.61
2023-04-15T16:38:30.366Z,86.50
2023-04-15T16:41:04.610Z,86.61
2023-04-15T16:43:32.926Z,86.50
2023-04-15T16:46:07.929Z,86.44
2023-04-15T16:48:37.890Z,86.30
2023-04-15T16:51:14.007Z,86.56
2023-04-15T16:53:43.449Z,86.40
2023-04-15T16:56:12.092Z,85.81
2023-04-15T16:58:40.792Z,85.85
2023-04-15T17:01:11.120Z,85.12
2023-04-15T17:03:40.749Z,84.78
2023-04-15T17:06:09.745Z,84.67
2023-04-15T17:08:40.318Z,85.17
2023-04-15T17:11:08.882Z,85.25
2023-04-15T17:13:37.563Z,85.29
2023-04-15T17:16:09.067Z,85.11
2023-04-15T17:18:40.048Z,85.21
2023-04-15T17:21:08.510Z,85.40
2023-04-15T17:23:37.005Z,85.44
2023-04-15T17:26:05.454Z,85.83
2023-04-15T17:28:33.738Z,86.01
2023-04-15T17:31:02.786Z,86.07
2023-04-15T17:34:01.550Z,86.12
2023-04-15T17:36:21.886Z,86.02
2023-04-15T17:38:51.850Z,85.98
2023-04-15T17:41:21.190Z,86.71
2023-04-15T17:43:50.484Z,87.45
2023-04-15T17:46:20.890Z,87.27
2023-04-15T17:48:50.643Z,88.10
2023-04-15T17:51:21.988Z,88.93
2023-04-15T17:53:50.910Z,88.94
2023-04-15T17:56:20.132Z,88.79
2023-04-15T17:58:48.773Z,88.71
2023-04-15T18:01:19.514Z,87.96
2023-04-15T18:03:50.185Z,87.87
2023-04-15T18:06:22.765Z,88.28
2023-04-15T18:09:46.721Z,88.42
2023-04-15T18:12:16.214Z,88.46
2023-04-15T18:14:46.457Z,88.31
2023-04-15T18:17:15.869Z,87.76
2023-04-15T18:19:48.126Z,87.44
2023-04-15T18:22:19.562Z,87.23
2023-04-15T18:24:51.712Z,87.38
2023-04-15T18:27:20.940Z,87.23
2023-04-15T18:29:49.703Z,86.91
2023-04-15T18:32:21.560Z,86.88
2023-04-15T18:34:51.816Z,87.34
2023-04-15T18:37:23.419Z,87.94
2023-04-15T18:39:54.630Z,88.35
2023-04-15T18:42:23.906Z,87.94
2023-04-15T18:44:53.922Z,87.81
2023-04-15T18:47:26.911Z,87.46
2023-04-15T18:49:56.496Z,87.41
2023-04-15T18:52:26.792Z,88.05
2023-04-15T18:55:03.757Z,88.61
2023-04-15T18:57:36.370Z,88.98
2023-04-15T19:00:07.285Z,89.64
2023-04-15T19:02:38.575Z,90.17
2023-04-15T19:05:15.280Z,90.27
2023-04-15T19:07:48.697Z,90.14
2023-04-15T19:10:18.164Z,90.05
2023-04-15T19:13:18.682Z,90.05
2023-04-15T19:15:48.019Z,90.26
2023-04-15T19:18:46.064Z,90.24
2023-04-15T19:21:17.149Z,90.55
2023-04-15T19:23:48.998Z,90.82
2023-04-15T19:26:20.581Z,90.75
2023-04-15T19:29:15.314Z,90.54
2023-04-15T19:31:44.570Z,90.55
2023-04-15T19:34:14.727Z,90.76
2023-04-15T19:36:44.898Z,91.19
2023-04-15T19:39:16.528Z,91.27
2023-04-15T19:41:46.232Z,91.13
2023-04-15T19:44:15.679Z,91.14
2023-04-15T19:46:50.005Z,91.25
2023-04-15T19:49:32.838Z,91.36
2023-04-15T19:52:08.468Z,91.53
2023-04-15T19:55:12.939Z,91.34
2023-04-15T19:58:52.670Z,90.75
2023-04-15T20:05:47.032Z,90.37
2023-04-15T20:12:51.038Z,89.89
2023-04-15T20:15:54.119Z,89.46
2023-04-15T20:22:47.510Z,91.05
2023-04-15T20:29:37.243Z,92.06
2023-04-15T20:36:34.984Z,92.68
2023-04-15T20:40:18.340Z,92.79
2023-04-15T20:42:49.070Z,92.89
2023-04-15T20:45:22.600Z,92.78
2023-04-15T20:47:55.696Z,92.71
2023-04-15T20:50:25.101Z,92.72
2023-04-15T20:57:17.707Z,92.76
2023-04-15T21:03:45.802Z,92.91
2023-04-15T21:06:40.020Z,92.45
2023-04-15T21:09:10.636Z,92.01
2023-04-15T21:11:57.268Z,91.43
2023-04-15T21:14:35.052Z,91.46
2023-04-15T21:17:08.509Z,91.42
2023-04-15T21:19:45.369Z,91.52
2023-04-15T21:22:15.732Z,91.67
2023-04-15T21:24:46.190Z,91.72
2023-04-15T21:27:15.453Z,91.85
2023-04-15T21:29:43.753Z,92.11
2023-04-15T21:32:14.246Z,92.21
2023-04-15T21:35:38.468Z,92.27
2023-04-15T21:38:09.265Z,92.27
2023-04-15T21:49:26.805Z,92.45
2023-04-15T21:52:01.043Z,92.17
2023-04-15T21:54:57.728Z,92.04
2023-04-15T21:57:51.226Z,92.12
2023-04-15T22:00:19.936Z,92.28
2023-04-15T22:02:48.241Z,92.43
2023-04-15T22:05:21.810Z,92.66
2023-04-15T22:07:50.030Z,92.74
2023-04-15T22:14:49.109Z,92.85
2023-04-15T22:17:44.497Z,92.85
2023-04-15T22:24:46.860Z,93.05
2023-04-15T22:31:42.048Z,92.58
2023-04-15T22:38:28.821Z,91.99
2023-04-15T22:49:48.283Z,91.89
2023-04-15T22:56:34.661Z,91.93
2023-04-15T23:03:23.058Z,92.38
2023-04-15T23:05:55.558Z,92.52
2023-04-15T23:08:24.831Z,92.59
2023-04-15T23:10:54.153Z,92.77
2023-04-15T23:14:26.040Z,92.77
2023-04-15T23:17:22.889Z,92.74
2023-04-15T23:27:45.618Z,93.41
2023-04-15T23:30:16.345Z,93.72
2023-04-15T23:32:48.771Z,94.04
2023-04-15T23:35:17.502Z,94.16
2023-04-15T23:37:45.657Z,94.24
2023-04-15T23:40:25.275Z,94.28
2023-04-15T23:44:06.866Z,94.11
2023-04-15T23:46:40.175Z,93.92
2023-04-15T23:49:13.818Z,93.84
2023-04-15T23:51:43.074Z,93.75
2023-04-15T23:54:39.603Z,93.64
2023-04-15T23:57:10.591Z,93.59
